Stellarton, Canada
Current Conditions -  °F | °C
As of 8:00 PM on Friday 24 Oct 2014 (Local Time) from CYYG Reporting Station
Haze Haze  
Wind Chill: 52°   Ceiling: 200
Heat Index: 52°   Visibility: 1.5mi
Dew Point: 52°   Wind: 10mph
Humidity: 100%   Direction: 20°NNE
Pressure: 29.46"   Gusts: NA
Location:  45.57°N, 62.65°W
Report Text: CYYG 242300Z 02009KT 1 1/2SM BR OVC002 11/11 A2946 RMK ST8 SLP978 DENSITY ALT 200FT
Loading
Personal Weather Stations






























Interactive Weather Map
Tropical Storm Tracking
New forecast layout! Learn more

10-Day Weather Forecast

Advertisements
Track Severe Weather on mobile